createdAt,value
2023-09-13T00:01:07.549Z,13.10
2023-09-13T00:03:37.955Z,13.65
2023-09-13T00:06:07.824Z,16.80
2023-09-13T00:08:37.623Z,16.52
2023-09-13T00:11:07.967Z,13.73
2023-09-13T00:13:37.767Z,15.02
2023-09-13T00:16:10.596Z,16.90
2023-09-13T00:18:40.681Z,16.42
2023-09-13T00:21:13.025Z,16.88
2023-09-13T00:23:43.425Z,17.17
2023-09-13T00:26:13.593Z,19.30
2023-09-13T00:28:44.525Z,17.58
2023-09-13T00:31:17.133Z,16.55
2023-09-13T00:33:47.239Z,16.17
2023-09-13T00:36:17.171Z,17.10
2023-09-13T00:38:47.913Z,16.92
2023-09-13T00:41:17.745Z,17.42
2023-09-13T00:43:47.553Z,20.65
2023-09-13T00:46:20.347Z,16.45
2023-09-13T00:48:51.126Z,14.10
2023-09-13T00:51:21.649Z,17.15
2023-09-13T00:53:51.856Z,18.20
2023-09-13T00:56:21.972Z,21.40
2023-09-13T00:58:52.866Z,24.70
2023-09-13T01:01:29.405Z,18.35
2023-09-13T01:04:00.023Z,18.70
2023-09-13T01:06:30.303Z,18.75
2023-09-13T01:09:00.186Z,15.82
2023-09-13T01:11:30.841Z,16.55
2023-09-13T01:14:00.722Z,16.17
2023-09-13T01:16:39.572Z,15.93
2023-09-13T01:19:33.788Z,17.58
2023-09-13T01:22:16.218Z,14.90
2023-09-13T01:25:04.702Z,15.70
2023-09-13T01:27:42.749Z,13.25
2023-09-13T01:30:16.610Z,18.80
2023-09-13T01:32:47.631Z,15.23
2023-09-13T01:35:17.455Z,14.18
2023-09-13T01:37:47.309Z,11.65
2023-09-13T01:40:17.192Z,11.48
2023-09-13T01:42:48.154Z,13.25
2023-09-13T01:45:21.042Z,9.90
2023-09-13T01:47:51.260Z,13.70
2023-09-13T01:50:21.900Z,13.40
2023-09-13T01:52:52.531Z,16.70
2023-09-13T01:55:22.353Z,17.45
2023-09-13T01:57:53.372Z,17.42
2023-09-13T02:00:25.966Z,17.17
2023-09-13T02:02:55.856Z,17.95
2023-09-13T02:05:25.803Z,17.30
2023-09-13T02:07:55.716Z,17.02
2023-09-13T02:10:25.745Z,15.23
2023-09-13T02:12:55.586Z,16.88
2023-09-13T02:15:28.448Z,23.40
2023-09-13T02:17:59.806Z,24.98
2023-09-13T02:20:30.002Z,26.70
2023-09-13T02:22:59.798Z,28.42
2023-09-13T02:25:29.689Z,28.58
2023-09-13T02:27:59.594Z,31.45
2023-09-13T02:30:32.127Z,34.50
2023-09-13T02:33:01.944Z,34.55
2023-09-13T02:35:33.647Z,34.03
2023-09-13T02:38:03.806Z,40.30
2023-09-13T02:40:33.636Z,39.47
2023-09-13T02:43:03.477Z,36.05
2023-09-13T02:45:35.971Z,35.17
2023-09-13T02:48:06.042Z,35.47
2023-09-13T02:50:35.974Z,34.00
2023-09-13T02:53:05.802Z,32.83
2023-09-13T02:55:37.665Z,31.83
2023-09-13T02:58:10.092Z,31.83
2023-09-13T03:00:46.003Z,32.90
2023-09-13T03:03:15.977Z,28.90
2023-09-13T03:05:45.835Z,34.72
2023-09-13T03:08:16.092Z,28.88
2023-09-13T03:10:45.843Z,33.70
2023-09-13T03:13:16.501Z,31.20
2023-09-13T03:15:49.116Z,38.17
2023-09-13T03:18:19.215Z,37.20
2023-09-13T03:20:49.027Z,34.88
2023-09-13T03:23:18.862Z,33.33
2023-09-13T03:25:48.771Z,35.00
2023-09-13T03:28:18.638Z,37.67
2023-09-13T03:30:51.110Z,38.15
2023-09-13T03:33:21.002Z,33.95
2023-09-13T03:35:52.095Z,37.47
2023-09-13T03:38:21.924Z,39.13
2023-09-13T03:40:51.779Z,43.45
2023-09-13T03:43:21.779Z,35.22
2023-09-13T03:45:54.386Z,41.88
2023-09-13T03:48:24.454Z,38.30
2023-09-13T03:50:54.491Z,41.67
2023-09-13T03:53:24.430Z,44.78
2023-09-13T03:55:54.588Z,41.22
2023-09-13T03:58:25.074Z,41.88
2023-09-13T04:00:57.792Z,43.70
2023-09-13T04:03:28.079Z,46.22
2023-09-13T04:05:58.018Z,48.25
2023-09-13T04:08:29.267Z,52.15
2023-09-13T04:10:59.115Z,50.20
2023-09-13T04:13:28.964Z,47.47
2023-09-13T04:16:04.366Z,50.22
2023-09-13T04:18:35.359Z,53.95
2023-09-13T04:21:05.165Z,52.60
2023-09-13T04:23:34.982Z,53.78
2023-09-13T04:26:05.314Z,54.42
2023-09-13T04:28:35.645Z,52.40
2023-09-13T04:31:09.686Z,58.22
2023-09-13T04:33:50.413Z,58.08
2023-09-13T04:36:22.603Z,59.50
2023-09-13T04:38:53.656Z,63.22
2023-09-13T04:41:23.510Z,63.05
2023-09-13T04:43:53.334Z,71.60
2023-09-13T04:46:26.735Z,60.33
2023-09-13T04:48:56.695Z,65.38
2023-09-13T04:51:28.106Z,63.80
2023-09-13T04:53:58.251Z,65.95
2023-09-13T04:56:28.069Z,86.68
2023-09-13T04:58:58.049Z,71.55
2023-09-13T05:01:30.773Z,72.93
2023-09-13T05:04:01.884Z,78.05
2023-09-13T05:06:31.891Z,70.45
2023-09-13T05:09:01.671Z,75.03
2023-09-13T05:11:31.505Z,63.40
2023-09-13T05:14:13.041Z,69.25
2023-09-13T05:16:45.566Z,73.55
2023-09-13T05:19:15.366Z,65.13
2023-09-13T05:21:45.394Z,78.10
2023-09-13T05:24:15.215Z,71.28
2023-09-13T05:26:44.969Z,73.55
2023-09-13T05:29:14.794Z,73.05
2023-09-13T05:31:47.355Z,73.55
2023-09-13T05:34:17.307Z,75.25
2023-09-13T05:36:47.200Z,74.75
2023-09-13T05:39:16.967Z,67.53
2023-09-13T05:41:46.804Z,68.97
2023-09-13T05:44:22.203Z,65.57
2023-09-13T05:46:55.164Z,65.10
2023-09-13T05:49:25.053Z,77.90
2023-09-13T05:51:54.937Z,72.43
2023-09-13T05:54:25.314Z,69.05
2023-09-13T05:56:58.417Z,68.13
2023-09-13T05:59:28.202Z,68.22
2023-09-13T06:02:00.871Z,70.28
2023-09-13T06:04:30.725Z,67.03
2023-09-13T06:07:00.585Z,63.25
2023-09-13T06:09:30.425Z,67.15
2023-09-13T06:12:02.955Z,65.18
2023-09-13T06:14:33.278Z,57.72
2023-09-13T06:17:05.746Z,60.85
2023-09-13T06:19:35.639Z,64.10
2023-09-13T06:22:05.589Z,60.83
2023-09-13T06:24:35.555Z,57.92
2023-09-13T06:27:05.418Z,53.67
2023-09-13T06:29:35.528Z,51.53
2023-09-13T06:32:30.430Z,61.42
2023-09-13T06:35:00.786Z,51.83
2023-09-13T06:37:31.765Z,59.67
2023-09-13T06:40:01.805Z,55.70
2023-09-13T06:42:31.943Z,51.42
2023-09-13T06:45:22.111Z,55.90
2023-09-13T06:47:58.111Z,58.38
2023-09-13T06:53:25.831Z,51.03
2023-09-13T06:55:54.702Z,56.92
2023-09-13T06:58:28.921Z,52.08
2023-09-13T07:01:24.813Z,50.75
2023-09-13T07:03:55.806Z,50.60
2023-09-13T07:06:30.188Z,54.88
2023-09-13T07:09:00.032Z,49.28
2023-09-13T07:11:30.000Z,45.75
2023-09-13T07:14:00.652Z,49.00
2023-09-13T07:16:30.872Z,50.92
2023-09-13T07:19:05.205Z,47.15
2023-09-13T07:21:35.077Z,48.47
2023-09-13T07:24:05.407Z,48.22
2023-09-13T07:26:35.551Z,43.72
2023-09-13T07:29:05.717Z,39.13
2023-09-13T07:31:35.550Z,43.38
2023-09-13T07:34:08.564Z,41.65
2023-09-13T07:36:38.432Z,38.57
2023-09-13T07:39:10.524Z,40.15
2023-09-13T07:41:40.323Z,34.42
2023-09-13T07:44:10.256Z,33.20
2023-09-13T07:46:40.163Z,34.00
2023-09-13T07:49:12.720Z,40.90
2023-09-13T07:51:42.507Z,34.58
2023-09-13T07:54:12.332Z,37.15
2023-09-13T07:56:42.157Z,32.83
2023-09-13T07:59:15.064Z,38.40
2023-09-13T08:01:44.948Z,34.73
2023-09-13T08:04:17.438Z,34.60
2023-09-13T08:06:47.290Z,33.08
2023-09-13T08:09:18.790Z,30.80
2023-09-13T08:11:49.652Z,24.55
2023-09-13T08:14:19.638Z,27.42
2023-09-13T08:16:49.600Z,23.52
2023-09-13T08:19:22.377Z,23.92
2023-09-13T08:21:52.163Z,26.98
2023-09-13T08:24:21.979Z,26.08
2023-09-13T08:26:51.767Z,27.63
2023-09-13T08:29:21.546Z,29.58
2023-09-13T08:31:51.320Z,23.27
2023-09-13T08:34:24.206Z,28.67
2023-09-13T08:36:55.075Z,23.00
2023-09-13T08:39:24.943Z,22.98
2023-09-13T08:41:56.788Z,23.48
2023-09-13T08:44:27.128Z,23.85
2023-09-13T08:46:58.603Z,21.98
2023-09-13T08:49:31.637Z,21.98
2023-09-13T08:52:02.410Z,18.23
2023-09-13T08:54:43.567Z,22.13
2023-09-13T08:57:22.486Z,18.80
2023-09-13T08:59:52.311Z,18.63
2023-09-13T09:02:22.793Z,20.40
2023-09-13T09:04:56.152Z,17.38
2023-09-13T09:07:26.109Z,19.73
2023-09-13T09:09:56.396Z,22.17
2023-09-13T09:12:28.075Z,21.63
2023-09-13T09:14:58.137Z,18.15
2023-09-13T09:17:28.219Z,19.38
2023-09-13T09:20:00.874Z,17.33
2023-09-13T09:22:31.592Z,20.17
2023-09-13T09:25:02.010Z,16.40
2023-09-13T09:27:31.884Z,19.33
2023-09-13T09:30:06.155Z,15.13
2023-09-13T09:32:37.151Z,17.15
2023-09-13T09:35:12.276Z,20.33
2023-09-13T09:37:42.186Z,24.52
2023-09-13T09:40:16.214Z,25.73
2023-09-13T09:42:46.114Z,21.27
2023-09-13T09:45:15.970Z,21.17
2023-09-13T09:47:46.084Z,25.75
2023-09-13T09:50:18.519Z,25.65
2023-09-13T09:52:52.956Z,27.38
2023-09-13T09:55:24.697Z,23.15
2023-09-13T09:57:56.650Z,24.35
2023-09-13T10:00:26.546Z,24.52
2023-09-13T10:02:56.614Z,27.75
2023-09-13T10:05:29.207Z,28.27
2023-09-13T10:07:59.633Z,24.33
2023-09-13T10:10:35.011Z,22.05
2023-09-13T10:13:05.143Z,23.85
2023-09-13T10:15:35.139Z,23.55
2023-09-13T10:18:06.015Z,22.40
2023-09-13T10:20:38.901Z,23.63
2023-09-13T10:23:11.635Z,18.90
2023-09-13T10:25:42.322Z,19.77
2023-09-13T10:28:13.541Z,21.45
2023-09-13T10:30:47.843Z,23.05
2023-09-13T10:33:18.232Z,17.95
2023-09-13T10:35:52.214Z,16.75
2023-09-13T10:38:29.015Z,16.17
2023-09-13T10:41:05.268Z,15.98
2023-09-13T10:43:35.987Z,18.45
2023-09-13T10:46:06.672Z,13.88
2023-09-13T10:48:38.297Z,17.55
2023-09-13T10:51:11.454Z,12.52
2023-09-13T10:53:42.719Z,14.32
2023-09-13T10:56:13.790Z,21.60
2023-09-13T10:58:44.681Z,16.77
2023-09-13T11:01:15.323Z,15.23
2023-09-13T11:03:45.956Z,15.93
2023-09-13T11:06:19.122Z,16.42
2023-09-13T11:08:49.065Z,11.80
2023-09-13T11:11:19.560Z,11.73
2023-09-13T11:13:50.852Z,13.98
2023-09-13T11:16:21.193Z,14.95
2023-09-13T11:18:54.068Z,11.88
2023-09-13T11:21:30.256Z,13.95
2023-09-13T11:24:03.548Z,17.90
2023-09-13T11:26:50.125Z,14.13
2023-09-13T11:29:27.273Z,12.38
2023-09-13T11:32:01.285Z,9.02
2023-09-13T11:34:31.919Z,6.70
2023-09-13T11:37:05.891Z,10.32
2023-09-13T11:39:36.479Z,7.43
2023-09-13T11:42:08.714Z,7.57
2023-09-13T11:44:56.712Z,6.22
2023-09-13T11:47:31.472Z,6.68
2023-09-13T11:50:11.368Z,8.65
2023-09-13T11:53:19.592Z,6.55
2023-09-13T11:58:38.564Z,6.63
2023-09-13T12:01:19.795Z,7.20
2023-09-13T12:04:23.897Z,6.80
2023-09-13T12:06:49.527Z,6.68
2023-09-13T12:09:30.348Z,9.27
2023-09-13T12:12:06.264Z,8.20
2023-09-13T12:14:58.215Z,6.28
2023-09-13T12:17:40.795Z,9.13
2023-09-13T12:20:11.849Z,7.00
2023-09-13T12:22:42.953Z,9.85
2023-09-13T12:25:18.436Z,10.65
2023-09-13T12:27:49.734Z,12.88
2023-09-13T12:30:20.899Z,14.02
2023-09-13T12:32:52.508Z,15.75
2023-09-13T12:35:22.739Z,15.02
2023-09-13T12:38:08.006Z,13.80
2023-09-13T12:40:42.890Z,15.95
2023-09-13T12:43:12.986Z,15.35
2023-09-13T12:45:43.063Z,13.23
2023-09-13T12:48:13.721Z,14.20
2023-09-13T12:50:43.997Z,13.57
2023-09-13T12:53:14.079Z,15.90
2023-09-13T12:55:46.925Z,16.23
2023-09-13T12:58:16.784Z,14.07
2023-09-13T13:00:54.657Z,13.80
2023-09-13T13:03:29.493Z,12.95
2023-09-13T13:06:03.331Z,12.30
2023-09-13T13:08:37.812Z,12.50
2023-09-13T13:11:11.015Z,12.30
2023-09-13T13:13:41.994Z,10.32
2023-09-13T13:16:17.844Z,10.55
2023-09-13T13:18:53.490Z,9.90
2023-09-13T13:23:59.218Z,8.70
2023-09-13T13:26:31.970Z,8.95
2023-09-13T13:29:06.753Z,8.02
2023-09-13T13:31:36.673Z,8.60
2023-09-13T13:34:07.063Z,8.43
2023-09-13T13:36:37.130Z,6.90
2023-09-13T13:39:09.797Z,6.70
2023-09-13T13:41:42.363Z,7.22
2023-09-13T13:44:13.331Z,5.82
2023-09-13T13:46:43.358Z,4.90
2023-09-13T13:49:17.848Z,9.75
2023-09-13T13:51:51.696Z,5.55
2023-09-13T13:54:24.112Z,5.32
2023-09-13T13:56:56.857Z,6.05
2023-09-13T13:59:27.012Z,5.53
2023-09-13T14:01:58.150Z,5.05
2023-09-13T14:04:28.244Z,4.55
2023-09-13T14:06:58.096Z,8.93
2023-09-13T14:09:27.936Z,4.10
2023-09-13T14:12:00.378Z,11.50
2023-09-13T14:14:30.229Z,4.50
2023-09-13T14:17:00.041Z,3.88
2023-09-13T14:19:31.235Z,5.00
2023-09-13T14:22:02.011Z,3.10
2023-09-13T14:24:31.954Z,3.85
2023-09-13T14:27:04.526Z,6.80
2023-09-13T14:29:34.436Z,4.38
2023-09-13T14:32:05.437Z,3.03
2023-09-13T14:34:40.630Z,4.03
2023-09-13T14:37:12.077Z,5.20
2023-09-13T14:39:42.093Z,4.80
2023-09-13T14:42:14.905Z,3.20
2023-09-13T14:44:44.763Z,6.32
2023-09-13T14:47:16.608Z,6.00
2023-09-13T14:49:46.560Z,4.10
2023-09-13T14:52:17.850Z,3.63
2023-09-13T14:54:47.850Z,5.07
2023-09-13T14:57:20.372Z,3.25
2023-09-13T14:59:50.205Z,6.20
2023-09-13T15:02:20.120Z,5.22
2023-09-13T15:04:51.721Z,4.32
2023-09-13T15:07:21.805Z,2.78
2023-09-13T15:09:51.990Z,3.60
2023-09-13T15:12:24.944Z,2.38
2023-09-13T15:14:54.818Z,2.33
2023-09-13T15:17:24.781Z,5.35
2023-09-13T15:19:54.675Z,4.13
2023-09-13T15:22:26.679Z,6.65
2023-09-13T15:24:58.589Z,2.78
2023-09-13T15:27:31.264Z,2.05
2023-09-13T15:30:04.542Z,4.95
2023-09-13T15:32:34.510Z,2.13
2023-09-13T15:35:04.509Z,5.50
2023-09-13T15:37:34.401Z,3.42
2023-09-13T15:40:11.050Z,2.75
2023-09-13T15:42:43.560Z,3.10
2023-09-13T15:45:13.780Z,4.47
2023-09-13T15:47:43.726Z,2.33
2023-09-13T15:50:13.772Z,3.95
2023-09-13T15:52:45.708Z,2.83
2023-09-13T15:55:15.537Z,5.65
2023-09-13T15:57:47.998Z,2.95
2023-09-13T16:00:18.100Z,3.80
2023-09-13T16:02:47.940Z,4.03
2023-09-13T16:05:17.827Z,6.28
2023-09-13T16:07:47.649Z,3.25
2023-09-13T16:10:17.655Z,3.70
2023-09-13T16:12:50.051Z,2.97
2023-09-13T16:15:21.440Z,4.18
2023-09-13T16:17:51.443Z,5.43
2023-09-13T16:20:21.739Z,7.78
2023-09-13T16:22:51.788Z,3.40
2023-09-13T16:25:21.644Z,5.80
2023-09-13T16:27:54.106Z,3.22
2023-09-13T16:30:23.919Z,3.63
2023-09-13T16:32:58.194Z,2.60
2023-09-13T16:35:28.553Z,2.60
2023-09-13T16:37:58.603Z,2.78
2023-09-13T16:40:28.696Z,3.95
2023-09-13T16:43:01.420Z,2.50
2023-09-13T16:45:31.249Z,3.65
2023-09-13T16:48:01.077Z,3.55
2023-09-13T16:50:30.986Z,3.70
2023-09-13T16:53:00.858Z,2.58
2023-09-13T16:55:30.804Z,5.40
2023-09-13T16:58:03.252Z,7.93
2023-09-13T17:00:33.097Z,3.65
2023-09-13T17:03:02.964Z,3.35
2023-09-13T17:05:32.960Z,3.78
2023-09-13T17:08:02.724Z,5.05
2023-09-13T17:10:32.554Z,3.25
2023-09-13T17:13:04.936Z,7.55
2023-09-13T17:15:34.749Z,2.83
2023-09-13T17:18:04.729Z,4.63
2023-09-13T17:20:35.491Z,8.85
2023-09-13T17:23:05.374Z,16.67
2023-09-13T17:25:35.143Z,3.45
2023-09-13T17:28:08.491Z,4.03
2023-09-13T17:30:38.713Z,13.50
2023-09-13T17:33:09.420Z,9.07
2023-09-13T17:35:40.781Z,7.40
2023-09-13T17:38:12.788Z,4.18
2023-09-13T17:40:42.570Z,3.90
2023-09-13T17:43:15.390Z,4.88
2023-09-13T17:45:45.565Z,3.55
2023-09-13T17:48:15.480Z,7.65
2023-09-13T17:50:45.322Z,4.88
2023-09-13T17:53:16.442Z,6.85
2023-09-13T17:55:48.191Z,3.00
2023-09-13T17:58:20.798Z,3.90
2023-09-13T18:00:50.772Z,4.03
2023-09-13T18:03:20.737Z,6.18
2023-09-13T18:05:50.715Z,4.28
2023-09-13T18:08:20.802Z,4.53
2023-09-13T18:10:50.756Z,7.50
2023-09-13T18:13:23.145Z,4.47
2023-09-13T18:15:52.999Z,8.57
2023-09-13T18:18:22.902Z,5.85
2023-09-13T18:20:52.770Z,4.25
2023-09-13T18:23:22.567Z,4.35
2023-09-13T18:25:52.406Z,10.25
2023-09-13T18:28:25.007Z,12.20
2023-09-13T18:31:07.222Z,7.78
2023-09-13T18:33:38.710Z,6.25
2023-09-13T18:36:09.378Z,4.80
2023-09-13T18:38:41.763Z,5.75
2023-09-13T18:41:11.558Z,6.05
2023-09-13T18:43:44.345Z,3.60
2023-09-13T18:46:14.280Z,4.00
2023-09-13T18:48:44.761Z,7.18
2023-09-13T18:51:14.771Z,5.55
2023-09-13T18:53:44.597Z,3.47
2023-09-13T18:56:15.249Z,4.57
2023-09-13T18:58:47.918Z,10.60
2023-09-13T19:01:17.917Z,20.52
2023-09-13T19:03:47.905Z,13.65
2023-09-13T19:06:17.842Z,5.18
2023-09-13T19:08:51.827Z,9.10
2023-09-13T19:11:21.749Z,6.55
2023-09-13T19:13:54.657Z,7.97
2023-09-13T19:16:24.619Z,3.73
2023-09-13T19:18:58.132Z,6.72
2023-09-13T19:21:28.030Z,5.00
2023-09-13T19:24:00.932Z,5.20
2023-09-13T19:26:31.309Z,24.02
2023-09-13T19:29:03.759Z,4.70
2023-09-13T19:31:33.778Z,10.63
2023-09-13T19:34:04.075Z,8.07
2023-09-13T19:36:34.408Z,9.60
2023-09-13T19:39:07.284Z,8.20
2023-09-13T19:41:37.352Z,7.40
2023-09-13T19:44:09.957Z,14.27
2023-09-13T19:46:39.963Z,4.95
2023-09-13T19:49:09.813Z,6.35
2023-09-13T19:51:39.834Z,6.53
2023-09-13T19:54:10.331Z,6.25
2023-09-13T19:56:40.245Z,5.60
2023-09-13T19:59:17.696Z,7.38
2023-09-13T20:01:48.241Z,8.65
2023-09-13T20:04:18.190Z,4.45
2023-09-13T20:06:48.510Z,6.88
2023-09-13T20:09:18.288Z,7.47
2023-09-13T20:11:48.189Z,5.97
2023-09-13T20:14:20.666Z,5.60
2023-09-13T20:16:50.600Z,6.28
2023-09-13T20:19:22.644Z,3.88
2023-09-13T20:21:52.576Z,5.30
2023-09-13T20:24:22.521Z,5.35
2023-09-13T20:26:54.895Z,9.88
2023-09-13T20:29:30.710Z,4.07
2023-09-13T20:32:01.123Z,6.88
2023-09-13T20:34:35.859Z,5.13
2023-09-13T20:37:05.873Z,5.38
2023-09-13T20:39:36.262Z,8.70
2023-09-13T20:42:09.520Z,4.82
2023-09-13T20:44:42.109Z,6.55
2023-09-13T20:47:12.384Z,6.18
2023-09-13T20:49:42.463Z,5.82
2023-09-13T20:52:12.862Z,7.00
2023-09-13T20:54:42.708Z,3.67
2023-09-13T20:57:09.981Z,3.22
2023-09-13T20:59:42.716Z,4.03
2023-09-13T21:02:12.549Z,4.30
2023-09-13T21:04:42.464Z,3.50
2023-09-13T21:07:12.442Z,5.00
2023-09-13T21:09:42.417Z,3.05
2023-09-13T21:12:13.006Z,5.43
2023-09-13T21:14:45.394Z,4.05
2023-09-13T21:17:15.485Z,5.07
2023-09-13T21:19:45.517Z,5.30
2023-09-13T21:22:15.621Z,5.03
2023-09-13T21:24:48.258Z,3.88
2023-09-13T21:27:18.264Z,3.97
2023-09-13T21:29:50.724Z,3.65
2023-09-13T21:32:23.669Z,3.25
2023-09-13T21:35:02.320Z,4.78
2023-09-13T21:37:35.049Z,3.78
2023-09-13T21:40:07.791Z,3.50
2023-09-13T21:42:37.729Z,5.97
2023-09-13T21:45:11.610Z,4.55
2023-09-13T21:47:41.561Z,3.72
2023-09-13T21:50:12.139Z,3.95
2023-09-13T21:52:42.784Z,3.60
2023-09-13T21:55:12.814Z,4.93
2023-09-13T21:57:42.757Z,6.72
2023-09-13T22:00:17.602Z,7.45
2023-09-13T22:02:47.862Z,5.63
2023-09-13T22:05:23.472Z,3.67
2023-09-13T22:07:53.748Z,5.97
2023-09-13T22:10:23.581Z,7.15
2023-09-13T22:12:55.327Z,3.35
2023-09-13T22:15:28.922Z,5.15
2023-09-13T22:17:58.878Z,6.45
2023-09-13T22:20:28.829Z,4.20
2023-09-13T22:22:58.805Z,4.85
2023-09-13T22:25:28.674Z,4.93
2023-09-13T22:27:58.716Z,7.07
2023-09-13T22:30:32.393Z,5.03
2023-09-13T22:33:02.861Z,4.95
2023-09-13T22:35:32.769Z,4.32
2023-09-13T22:38:02.667Z,8.73
2023-09-13T22:40:32.781Z,6.45
2023-09-13T22:43:03.074Z,4.25
2023-09-13T22:45:39.153Z,7.32
2023-09-13T22:48:11.195Z,3.28
2023-09-13T22:50:43.343Z,8.50
2023-09-13T22:53:13.360Z,6.03
2023-09-13T22:55:52.487Z,7.10
2023-09-13T22:58:22.709Z,6.93
2023-09-13T23:00:55.216Z,10.27
2023-09-13T23:03:37.993Z,11.82
2023-09-13T23:06:13.691Z,8.77
2023-09-13T23:08:43.686Z,4.10
2023-09-13T23:11:15.484Z,6.93
2023-09-13T23:13:50.179Z,11.45
2023-09-13T23:16:23.414Z,6.63
2023-09-13T23:18:53.348Z,12.07
2023-09-13T23:21:23.130Z,10.50
2023-09-13T23:23:52.931Z,4.93
2023-09-13T23:26:22.835Z,5.53
2023-09-13T23:28:54.393Z,17.30
2023-09-13T23:31:31.344Z,7.85
2023-09-13T23:34:01.350Z,7.97
2023-09-13T23:36:31.301Z,4.20
2023-09-13T23:39:01.102Z,7.68
2023-09-13T23:41:31.553Z,8.27
2023-09-13T23:44:01.426Z,10.57
2023-09-13T23:46:34.178Z,5.13
2023-09-13T23:49:04.012Z,9.63
2023-09-13T23:51:33.894Z,7.28
2023-09-13T23:54:03.743Z,6.43
2023-09-13T23:56:30.897Z,5.68
2023-09-13T23:59:00.665Z,6.25
